This is the latest recevied weather packets stored in our database for station/object WB6AHC-1. If no packets are shown the sender has not sent any weather packets the latest 10 day(s).
| Time | Temp. | Humidity | Pressure | Rain* | Wind** | Luminosity | Snow |
|---|---|---|---|---|---|---|---|
| 1777921637 | 19.44° C | 51% | - | 0 mm | 0 m/s | - | - |
| 1777920790 | 18.89° C | 53% | - | 0 mm | 0 m/s | - | - |
| 1777919946 | 18.33° C | 54% | - | 0 mm | 0 m/s | - | - |
| 1777919102 | 17.78° C | 55% | - | 0 mm | 0 m/s | - | - |
| 1777918255 | 18.33° C | 55% | - | 0 mm | 0 m/s | - | - |
| 1777917411 | 17.78° C | 57% | - | 0 mm | 0 m/s | - | - |
| 1777916567 | 17.22° C | 57% | - | 0 mm | 0 m/s | - | - |
| 1777915720 | 17.78° C | 59% | - | 0 mm | 0 m/s | - | - |
| 1777914876 | 17.78° C | 58% | - | 0 mm | 0 m/s | - | - |
| 1777914032 | 17.78° C | 59% | - | 0 mm | 0 m/s | - | - |
| 1777913185 | 17.22° C | 62% | - | 0 mm | 0 m/s | - | - |
| 1777912341 | 17.22° C | 63% | - | 0 mm | 0 m/s | - | - |
| 1777911497 | 17.22° C | 65% | - | 0 mm | 0 m/s | - | - |
| 1777910650 | 16.67° C | 67% | - | 0 mm | 0 m/s | - | - |
| 1777909805 | 16.11° C | 70% | - | 0 mm | 0 m/s | - | - |
| 1777908961 | 15.56° C | 73% | - | 0 mm | 0 m/s | - | - |
| 1777908114 | 14.44° C | 76% | - | 0 mm | 0 m/s | - | - |
| 1777907270 | 13.33° C | 80% | - | 0 mm | 0 m/s | - | - |
| 1777906426 | 12.22° C | 83% | - | 0 mm | 0 m/s | - | - |
| 1777905579 | 11.67° C | 86% | - | 0 mm | 0 m/s | - | - |
| 1777904735 | 10° C | 89% | - | 0 mm | 0 m/s | - | - |
| 1777903891 | 9.44° C | 90% | - | 0 mm | 0 m/s | - | - |
| 1777903044 | 8.89° C | 91% | - | 0 mm | 0 m/s | - | - |
| 1777902200 | 8.33° C | 91% | - | 0 mm | 0 m/s | - | - |
| 1777901356 | 8.89° C | 91% | - | 0 mm | 0 m/s | - | - |
* Rain latest hour (hover to see other rain measurements)
** Current wind speed in m/s (hover to see current wind gust speed)